sensor_id;sensor_type;location;lat;lon;timestamp;P1;durP1;ratioP1;P2;durP2;ratioP2
64712;SDS011;51140;45.340;5.980;2022-09-01T00:00:22;10.82;;;2.90;;
64712;SDS011;51140;45.340;5.980;2022-09-01T00:02:52;8.13;;;2.80;;
64712;SDS011;51140;45.340;5.980;2022-09-01T00:05:18;7.78;;;3.25;;
64712;SDS011;51140;45.340;5.980;2022-09-01T00:07:43;8.93;;;2.88;;
64712;SDS011;51140;45.340;5.980;2022-09-01T00:10:09;5.10;;;2.80;;
64712;SDS011;51140;45.340;5.980;2022-09-01T00:12:34;9.27;;;3.10;;
64712;SDS011;51140;45.340;5.980;2022-09-01T00:14:59;9.10;;;2.60;;
64712;SDS011;51140;45.340;5.980;2022-09-01T00:17:25;7.20;;;3.08;;
64712;SDS011;51140;45.340;5.980;2022-09-01T00:19:50;6.80;;;2.60;;
64712;SDS011;51140;45.340;5.980;2022-09-01T00:22:15;7.38;;;3.10;;
64712;SDS011;51140;45.340;5.980;2022-09-01T00:24:41;4.87;;;2.60;;
64712;SDS011;51140;45.340;5.980;2022-09-01T00:27:06;8.73;;;2.83;;
64712;SDS011;51140;45.340;5.980;2022-09-01T00:29:31;9.00;;;3.03;;
64712;SDS011;51140;45.340;5.980;2022-09-01T00:31:56;6.22;;;2.65;;
64712;SDS011;51140;45.340;5.980;2022-09-01T00:34:22;8.40;;;2.70;;
64712;SDS011;51140;45.340;5.980;2022-09-01T00:36:47;6.95;;;2.60;;
64712;SDS011;51140;45.340;5.980;2022-09-01T00:39:13;10.18;;;3.10;;
64712;SDS011;51140;45.340;5.980;2022-09-01T00:41:39;7.50;;;3.40;;
64712;SDS011;51140;45.340;5.980;2022-09-01T00:44:08;5.63;;;2.70;;
64712;SDS011;51140;45.340;5.980;2022-09-01T00:46:38;10.18;;;3.15;;
64712;SDS011;51140;45.340;5.980;2022-09-01T00:49:11;6.40;;;2.80;;
64712;SDS011;51140;45.340;5.980;2022-09-01T00:51:38;6.05;;;2.60;;
64712;SDS011;51140;45.340;5.980;2022-09-01T00:54:05;5.95;;;2.80;;
64712;SDS011;51140;45.340;5.980;2022-09-01T00:56:31;6.10;;;2.83;;
64712;SDS011;51140;45.340;5.980;2022-09-01T00:58:56;7.65;;;2.83;;
64712;SDS011;51140;45.340;5.980;2022-09-01T01:01:23;6.45;;;3.15;;
64712;SDS011;51140;45.340;5.980;2022-09-01T01:03:48;12.68;;;2.55;;
64712;SDS011;51140;45.340;5.980;2022-09-01T01:06:14;9.43;;;3.13;;
64712;SDS011;51140;45.340;5.980;2022-09-01T01:08:41;8.77;;;3.00;;
64712;SDS011;51140;45.340;5.980;2022-09-01T01:11:09;7.47;;;3.00;;
64712;SDS011;51140;45.340;5.980;2022-09-01T01:13:52;5.70;;;2.95;;
64712;SDS011;51140;45.340;5.980;2022-09-01T01:16:18;8.30;;;2.95;;
64712;SDS011;51140;45.340;5.980;2022-09-01T01:18:44;6.20;;;2.75;;
64712;SDS011;51140;45.340;5.980;2022-09-01T01:21:12;8.35;;;3.05;;
64712;SDS011;51140;45.340;5.980;2022-09-01T01:24:00;6.10;;;3.13;;
64712;SDS011;51140;45.340;5.980;2022-09-01T01:26:26;6.85;;;3.58;;
64712;SDS011;51140;45.340;5.980;2022-09-01T01:28:52;7.15;;;2.83;;
64712;SDS011;51140;45.340;5.980;2022-09-01T01:31:19;7.13;;;3.40;;
64712;SDS011;51140;45.340;5.980;2022-09-01T01:33:48;7.65;;;3.05;;
64712;SDS011;51140;45.340;5.980;2022-09-01T01:36:21;7.45;;;3.05;;
64712;SDS011;51140;45.340;5.980;2022-09-01T01:38:51;6.18;;;3.13;;
64712;SDS011;51140;45.340;5.980;2022-09-01T01:41:17;10.25;;;3.15;;
64712;SDS011;51140;45.340;5.980;2022-09-01T01:43:43;6.45;;;3.08;;
64712;SDS011;51140;45.340;5.980;2022-09-01T01:46:09;6.93;;;3.17;;
64712;SDS011;51140;45.340;5.980;2022-09-01T01:48:36;6.85;;;3.05;;
64712;SDS011;51140;45.340;5.980;2022-09-01T01:51:02;8.27;;;3.42;;
64712;SDS011;51140;45.340;5.980;2022-09-01T01:53:28;6.82;;;3.20;;
64712;SDS011;51140;45.340;5.980;2022-09-01T01:55:54;5.30;;;3.13;;
64712;SDS011;51140;45.340;5.980;2022-09-01T01:58:21;8.45;;;3.55;;
64712;SDS011;51140;45.340;5.980;2022-09-01T02:00:47;7.80;;;3.47;;
64712;SDS011;51140;45.340;5.980;2022-09-01T02:03:13;6.18;;;3.35;;
64712;SDS011;51140;45.340;5.980;2022-09-01T02:05:41;6.43;;;3.40;;
64712;SDS011;51140;45.340;5.980;2022-09-01T02:08:07;10.07;;;3.60;;
64712;SDS011;51140;45.340;5.980;2022-09-01T02:10:34;5.95;;;3.25;;
64712;SDS011;51140;45.340;5.980;2022-09-01T02:13:00;7.32;;;3.60;;
64712;SDS011;51140;45.340;5.980;2022-09-01T02:15:32;5.45;;;3.20;;
64712;SDS011;51140;45.340;5.980;2022-09-01T02:18:06;9.45;;;3.85;;
64712;SDS011;51140;45.340;5.980;2022-09-01T02:20:31;5.82;;;3.13;;
64712;SDS011;51140;45.340;5.980;2022-09-01T02:22:57;7.77;;;3.20;;
64712;SDS011;51140;45.340;5.980;2022-09-01T02:25:34;6.93;;;3.20;;
64712;SDS011;51140;45.340;5.980;2022-09-01T02:28:00;6.00;;;3.30;;
64712;SDS011;51140;45.340;5.980;2022-09-01T02:30:28;6.75;;;3.25;;
64712;SDS011;51140;45.340;5.980;2022-09-01T02:32:56;6.53;;;3.20;;
64712;SDS011;51140;45.340;5.980;2022-09-01T02:35:22;7.07;;;3.30;;
64712;SDS011;51140;45.340;5.980;2022-09-01T02:37:52;8.75;;;3.55;;
64712;SDS011;51140;45.340;5.980;2022-09-01T02:40:20;6.80;;;3.47;;
64712;SDS011;51140;45.340;5.980;2022-09-01T02:42:45;7.38;;;3.17;;
64712;SDS011;51140;45.340;5.980;2022-09-01T02:45:12;7.20;;;3.75;;
64712;SDS011;51140;45.340;5.980;2022-09-01T02:47:39;6.10;;;3.35;;
64712;SDS011;51140;45.340;5.980;2022-09-01T02:50:06;7.50;;;3.38;;
64712;SDS011;51140;45.340;5.980;2022-09-01T02:52:37;5.85;;;3.15;;
64712;SDS011;51140;45.340;5.980;2022-09-01T02:55:04;8.10;;;3.80;;
64712;SDS011;51140;45.340;5.980;2022-09-01T02:57:30;9.13;;;3.67;;
64712;SDS011;51140;45.340;5.980;2022-09-01T02:59:58;7.95;;;3.42;;
64712;SDS011;51140;45.340;5.980;2022-09-01T03:02:23;9.13;;;3.67;;
64712;SDS011;51140;45.340;5.980;2022-09-01T03:04:52;6.32;;;3.35;;
64712;SDS011;51140;45.340;5.980;2022-09-01T03:07:20;10.95;;;4.00;;
64712;SDS011;51140;45.340;5.980;2022-09-01T03:09:49;7.68;;;3.08;;
64712;SDS011;51140;45.340;5.980;2022-09-01T03:12:16;6.50;;;3.25;;
64712;SDS011;51140;45.340;5.980;2022-09-01T03:14:41;6.10;;;3.80;;
64712;SDS011;51140;45.340;5.980;2022-09-01T03:17:07;9.53;;;3.47;;
64712;SDS011;51140;45.340;5.980;2022-09-01T03:19:32;11.38;;;4.15;;
64712;SDS011;51140;45.340;5.980;2022-09-01T03:22:00;6.57;;;3.38;;
64712;SDS011;51140;45.340;5.980;2022-09-01T03:24:26;7.63;;;3.38;;
64712;SDS011;51140;45.340;5.980;2022-09-01T03:26:51;7.80;;;3.47;;
64712;SDS011;51140;45.340;5.980;2022-09-01T03:29:17;5.72;;;3.40;;
64712;SDS011;51140;45.340;5.980;2022-09-01T03:31:43;6.22;;;3.22;;
64712;SDS011;51140;45.340;5.980;2022-09-01T03:34:08;9.47;;;3.33;;
64712;SDS011;51140;45.340;5.980;2022-09-01T03:36:35;6.63;;;3.40;;
64712;SDS011;51140;45.340;5.980;2022-09-01T03:39:00;7.15;;;3.35;;
64712;SDS011;51140;45.340;5.980;2022-09-01T03:41:26;6.28;;;3.33;;
64712;SDS011;51140;45.340;5.980;2022-09-01T03:43:55;8.18;;;3.78;;
64712;SDS011;51140;45.340;5.980;2022-09-01T03:46:22;7.50;;;3.70;;
64712;SDS011;51140;45.340;5.980;2022-09-01T03:48:49;6.43;;;3.42;;
64712;SDS011;51140;45.340;5.980;2022-09-01T03:51:15;6.90;;;3.30;;
64712;SDS011;51140;45.340;5.980;2022-09-01T03:53:40;6.97;;;3.78;;
64712;SDS011;51140;45.340;5.980;2022-09-01T03:56:06;7.25;;;3.70;;
64712;SDS011;51140;45.340;5.980;2022-09-01T03:58:32;6.15;;;3.45;;
64712;SDS011;51140;45.340;5.980;2022-09-01T04:00:58;7.35;;;3.60;;
64712;SDS011;51140;45.340;5.980;2022-09-01T04:03:29;6.07;;;3.35;;
64712;SDS011;51140;45.340;5.980;2022-09-01T04:05:56;5.78;;;3.30;;
64712;SDS011;51140;45.340;5.980;2022-09-01T04:08:22;7.88;;;3.65;;
64712;SDS011;51140;45.340;5.980;2022-09-01T04:10:55;8.23;;;3.53;;
64712;SDS011;51140;45.340;5.980;2022-09-01T04:13:21;8.82;;;3.85;;
64712;SDS011;51140;45.340;5.980;2022-09-01T04:15:47;7.40;;;3.50;;
64712;SDS011;51140;45.340;5.980;2022-09-01T04:18:13;9.55;;;3.60;;
64712;SDS011;51140;45.340;5.980;2022-09-01T04:20:45;7.03;;;3.33;;
64712;SDS011;51140;45.340;5.980;2022-09-01T04:25:54;6.53;;;3.60;;
64712;SDS011;51140;45.340;5.980;2022-09-01T04:28:20;8.35;;;3.40;;
64712;SDS011;51140;45.340;5.980;2022-09-01T04:30:54;8.35;;;3.85;;
64712;SDS011;51140;45.340;5.980;2022-09-01T04:33:20;6.85;;;3.20;;
64712;SDS011;51140;45.340;5.980;2022-09-01T04:35:46;6.95;;;3.70;;
64712;SDS011;51140;45.340;5.980;2022-09-01T04:38:13;7.82;;;3.63;;
64712;SDS011;51140;45.340;5.980;2022-09-01T04:40:39;6.53;;;3.63;;
64712;SDS011;51140;45.340;5.980;2022-09-01T04:43:05;6.68;;;3.72;;
64712;SDS011;51140;45.340;5.980;2022-09-01T04:45:30;8.82;;;3.60;;
64712;SDS011;51140;45.340;5.980;2022-09-01T04:47:58;10.07;;;3.70;;
64712;SDS011;51140;45.340;5.980;2022-09-01T04:50:24;6.28;;;3.53;;
64712;SDS011;51140;45.340;5.980;2022-09-01T04:52:51;6.90;;;3.42;;
64712;SDS011;51140;45.340;5.980;2022-09-01T04:55:19;8.88;;;3.50;;
64712;SDS011;51140;45.340;5.980;2022-09-01T04:57:45;5.75;;;3.33;;
64712;SDS011;51140;45.340;5.980;2022-09-01T05:00:12;7.22;;;3.70;;
64712;SDS011;51140;45.340;5.980;2022-09-01T05:02:46;6.97;;;3.75;;
64712;SDS011;51140;45.340;5.980;2022-09-01T05:05:11;6.28;;;3.42;;
64712;SDS011;51140;45.340;5.980;2022-09-01T05:07:36;6.60;;;3.40;;
64712;SDS011;51140;45.340;5.980;2022-09-01T05:10:02;7.27;;;3.87;;
64712;SDS011;51140;45.340;5.980;2022-09-01T05:12:27;7.95;;;3.80;;
64712;SDS011;51140;45.340;5.980;2022-09-01T05:14:53;7.30;;;3.22;;
64712;SDS011;51140;45.340;5.980;2022-09-01T05:17:19;8.68;;;4.03;;
64712;SDS011;51140;45.340;5.980;2022-09-01T05:19:46;9.20;;;4.40;;
64712;SDS011;51140;45.340;5.980;2022-09-01T05:22:11;6.85;;;3.83;;
64712;SDS011;51140;45.340;5.980;2022-09-01T05:24:37;7.10;;;3.55;;
64712;SDS011;51140;45.340;5.980;2022-09-01T05:27:03;8.20;;;3.80;;
64712;SDS011;51140;45.340;5.980;2022-09-01T05:29:28;8.45;;;3.97;;
64712;SDS011;51140;45.340;5.980;2022-09-01T05:31:53;6.75;;;3.28;;
64712;SDS011;51140;45.340;5.980;2022-09-01T05:34:19;7.93;;;3.83;;
64712;SDS011;51140;45.340;5.980;2022-09-01T05:36:50;9.68;;;4.43;;
64712;SDS011;51140;45.340;5.980;2022-09-01T05:39:15;9.38;;;4.50;;
64712;SDS011;51140;45.340;5.980;2022-09-01T05:41:41;9.80;;;4.72;;
64712;SDS011;51140;45.340;5.980;2022-09-01T05:44:07;9.00;;;4.13;;
64712;SDS011;51140;45.340;5.980;2022-09-01T05:46:33;8.60;;;4.25;;
64712;SDS011;51140;45.340;5.980;2022-09-01T05:48:58;8.95;;;4.30;;
64712;SDS011;51140;45.340;5.980;2022-09-01T05:51:24;9.60;;;4.20;;
64712;SDS011;51140;45.340;5.980;2022-09-01T05:53:52;12.20;;;4.90;;
64712;SDS011;51140;45.340;5.980;2022-09-01T05:56:20;8.80;;;4.82;;
64712;SDS011;51140;45.340;5.980;2022-09-01T05:58:47;7.90;;;4.25;;
64712;SDS011;51140;45.340;5.980;2022-09-01T06:01:15;11.23;;;5.07;;
64712;SDS011;51140;45.340;5.980;2022-09-01T06:03:41;10.80;;;4.50;;
64712;SDS011;51140;45.340;5.980;2022-09-01T06:06:08;10.43;;;4.70;;
64712;SDS011;51140;45.340;5.980;2022-09-01T06:08:36;9.18;;;4.65;;
64712;SDS011;51140;45.340;5.980;2022-09-01T06:11:01;8.25;;;4.18;;
64712;SDS011;51140;45.340;5.980;2022-09-01T06:13:36;8.13;;;4.67;;
64712;SDS011;51140;45.340;5.980;2022-09-01T06:16:02;10.00;;;4.38;;
64712;SDS011;51140;45.340;5.980;2022-09-01T06:18:27;14.93;;;5.22;;
64712;SDS011;51140;45.340;5.980;2022-09-01T06:20:52;10.33;;;4.70;;
64712;SDS011;51140;45.340;5.980;2022-09-01T06:23:19;9.65;;;5.13;;
64712;SDS011;51140;45.340;5.980;2022-09-01T06:25:44;7.70;;;5.00;;
64712;SDS011;51140;45.340;5.980;2022-09-01T06:28:12;10.60;;;5.05;;
64712;SDS011;51140;45.340;5.980;2022-09-01T06:30:37;14.00;;;5.18;;
64712;SDS011;51140;45.340;5.980;2022-09-01T06:33:04;9.43;;;5.30;;
64712;SDS011;51140;45.340;5.980;2022-09-01T06:35:33;8.10;;;4.80;;
64712;SDS011;51140;45.340;5.980;2022-09-01T06:37:59;9.30;;;4.63;;
64712;SDS011;51140;45.340;5.980;2022-09-01T06:40:25;8.43;;;4.47;;
64712;SDS011;51140;45.340;5.980;2022-09-01T06:42:51;11.20;;;4.93;;
64712;SDS011;51140;45.340;5.980;2022-09-01T06:45:18;8.10;;;4.78;;
64712;SDS011;51140;45.340;5.980;2022-09-01T06:47:44;10.15;;;4.90;;
64712;SDS011;51140;45.340;5.980;2022-09-01T06:50:11;9.13;;;5.32;;
64712;SDS011;51140;45.340;5.980;2022-09-01T06:52:39;8.32;;;5.00;;
64712;SDS011;51140;45.340;5.980;2022-09-01T06:55:06;9.00;;;4.35;;
64712;SDS011;51140;45.340;5.980;2022-09-01T06:57:32;10.55;;;5.18;;
64712;SDS011;51140;45.340;5.980;2022-09-01T06:59:57;8.43;;;4.73;;
64712;SDS011;51140;45.340;5.980;2022-09-01T07:02:22;10.63;;;5.03;;
64712;SDS011;51140;45.340;5.980;2022-09-01T07:04:48;10.23;;;4.97;;
64712;SDS011;51140;45.340;5.980;2022-09-01T07:07:14;8.32;;;4.88;;
64712;SDS011;51140;45.340;5.980;2022-09-01T07:09:39;9.57;;;5.75;;
64712;SDS011;51140;45.340;5.980;2022-09-01T07:12:05;10.82;;;5.43;;
64712;SDS011;51140;45.340;5.980;2022-09-01T07:14:31;11.98;;;5.72;;
64712;SDS011;51140;45.340;5.980;2022-09-01T07:16:56;8.07;;;5.07;;
64712;SDS011;51140;45.340;5.980;2022-09-01T07:19:22;10.73;;;4.90;;
64712;SDS011;51140;45.340;5.980;2022-09-01T07:21:47;8.55;;;5.70;;
64712;SDS011;51140;45.340;5.980;2022-09-01T07:24:13;11.05;;;5.38;;
64712;SDS011;51140;45.340;5.980;2022-09-01T07:26:42;11.10;;;5.05;;
64712;SDS011;51140;45.340;5.980;2022-09-01T07:29:08;9.02;;;5.60;;
64712;SDS011;51140;45.340;5.980;2022-09-01T07:31:37;11.73;;;5.60;;
64712;SDS011;51140;45.340;5.980;2022-09-01T07:34:05;10.52;;;6.13;;
64712;SDS011;51140;45.340;5.980;2022-09-01T07:36:36;10.98;;;6.70;;
64712;SDS011;51140;45.340;5.980;2022-09-01T07:39:02;14.18;;;6.13;;
64712;SDS011;51140;45.340;5.980;2022-09-01T07:41:27;11.15;;;5.72;;
64712;SDS011;51140;45.340;5.980;2022-09-01T07:43:53;8.95;;;5.15;;
64712;SDS011;51140;45.340;5.980;2022-09-01T07:46:21;12.35;;;5.00;;
64712;SDS011;51140;45.340;5.980;2022-09-01T07:48:47;11.23;;;4.72;;
64712;SDS011;51140;45.340;5.980;2022-09-01T07:51:12;9.73;;;5.03;;
64712;SDS011;51140;45.340;5.980;2022-09-01T07:53:43;11.35;;;5.15;;
64712;SDS011;51140;45.340;5.980;2022-09-01T07:56:09;11.10;;;5.10;;
64712;SDS011;51140;45.340;5.980;2022-09-01T07:58:36;7.90;;;4.53;;
64712;SDS011;51140;45.340;5.980;2022-09-01T08:01:05;10.25;;;4.68;;
64712;SDS011;51140;45.340;5.980;2022-09-01T08:03:31;10.68;;;4.97;;
64712;SDS011;51140;45.340;5.980;2022-09-01T08:06:01;9.45;;;4.70;;
64712;SDS011;51140;45.340;5.980;2022-09-01T08:08:27;15.25;;;5.05;;
64712;SDS011;51140;45.340;5.980;2022-09-01T08:10:53;10.15;;;4.55;;
64712;SDS011;51140;45.340;5.980;2022-09-01T08:13:18;10.20;;;4.95;;
64712;SDS011;51140;45.340;5.980;2022-09-01T08:15:44;12.27;;;4.72;;
64712;SDS011;51140;45.340;5.980;2022-09-01T08:18:10;9.23;;;5.05;;
64712;SDS011;51140;45.340;5.980;2022-09-01T08:20:37;8.85;;;4.75;;
64712;SDS011;51140;45.340;5.980;2022-09-01T08:23:04;9.35;;;5.03;;
64712;SDS011;51140;45.340;5.980;2022-09-01T08:25:30;7.15;;;4.85;;
64712;SDS011;51140;45.340;5.980;2022-09-01T08:27:55;7.95;;;4.32;;
64712;SDS011;51140;45.340;5.980;2022-09-01T08:30:20;7.20;;;4.27;;
64712;SDS011;51140;45.340;5.980;2022-09-01T08:32:46;8.60;;;4.30;;
64712;SDS011;51140;45.340;5.980;2022-09-01T08:35:12;8.70;;;4.65;;
64712;SDS011;51140;45.340;5.980;2022-09-01T08:37:38;9.80;;;4.93;;
64712;SDS011;51140;45.340;5.980;2022-09-01T08:40:05;8.13;;;4.68;;
64712;SDS011;51140;45.340;5.980;2022-09-01T08:47:30;6.90;;;4.05;;
64712;SDS011;51140;45.340;5.980;2022-09-01T08:49:55;6.57;;;3.78;;
64712;SDS011;51140;45.340;5.980;2022-09-01T08:57:18;5.90;;;3.40;;
64712;SDS011;51140;45.340;5.980;2022-09-01T08:59:44;6.07;;;3.60;;
64712;SDS011;51140;45.340;5.980;2022-09-01T09:09:57;5.97;;;3.67;;
64712;SDS011;51140;45.340;5.980;2022-09-01T09:17:22;6.07;;;3.38;;
64712;SDS011;51140;45.340;5.980;2022-09-01T09:19:49;7.78;;;3.30;;
64712;SDS011;51140;45.340;5.980;2022-09-01T09:22:16;7.72;;;3.35;;
64712;SDS011;51140;45.340;5.980;2022-09-01T09:27:27;6.80;;;3.50;;
64712;SDS011;51140;45.340;5.980;2022-09-01T09:29:58;7.85;;;3.25;;
64712;SDS011;51140;45.340;5.980;2022-09-01T09:32:24;6.20;;;3.58;;
64712;SDS011;51140;45.340;5.980;2022-09-01T09:35:39;7.82;;;3.65;;
64712;SDS011;51140;45.340;5.980;2022-09-01T09:43:28;7.13;;;3.88;;
64712;SDS011;51140;45.340;5.980;2022-09-01T09:48:38;6.85;;;3.90;;
64712;SDS011;51140;45.340;5.980;2022-09-01T09:51:16;6.28;;;3.70;;
64712;SDS011;51140;45.340;5.980;2022-09-01T09:53:43;6.53;;;3.60;;
64712;SDS011;51140;45.340;5.980;2022-09-01T09:56:19;5.55;;;3.40;;
64712;SDS011;51140;45.340;5.980;2022-09-01T09:58:46;6.80;;;3.88;;
64712;SDS011;51140;45.340;5.980;2022-09-01T10:03:50;8.85;;;4.35;;
64712;SDS011;51140;45.340;5.980;2022-09-01T10:06:32;6.68;;;3.70;;
64712;SDS011;51140;45.340;5.980;2022-09-01T10:08:59;8.02;;;4.22;;
64712;SDS011;51140;45.340;5.980;2022-09-01T10:11:28;6.38;;;3.65;;
64712;SDS011;51140;45.340;5.980;2022-09-01T10:13:55;7.68;;;3.40;;
64712;SDS011;51140;45.340;5.980;2022-09-01T10:16:25;8.95;;;3.05;;
64712;SDS011;51140;45.340;5.980;2022-09-01T10:18:51;6.35;;;3.05;;
64712;SDS011;51140;45.340;5.980;2022-09-01T10:21:21;6.15;;;2.95;;
64712;SDS011;51140;45.340;5.980;2022-09-01T10:23:48;5.53;;;2.90;;
64712;SDS011;51140;45.340;5.980;2022-09-01T10:26:33;8.45;;;3.50;;
64712;SDS011;51140;45.340;5.980;2022-09-01T10:29:01;5.47;;;3.17;;
64712;SDS011;51140;45.340;5.980;2022-09-01T10:31:30;5.50;;;3.13;;
64712;SDS011;51140;45.340;5.980;2022-09-01T10:33:55;6.95;;;3.28;;
64712;SDS011;51140;45.340;5.980;2022-09-01T10:36:21;5.78;;;3.20;;
64712;SDS011;51140;45.340;5.980;2022-09-01T10:38:47;6.43;;;3.42;;
64712;SDS011;51140;45.340;5.980;2022-09-01T10:41:42;5.85;;;3.05;;
64712;SDS011;51140;45.340;5.980;2022-09-01T10:44:07;5.43;;;3.13;;
64712;SDS011;51140;45.340;5.980;2022-09-01T10:48:58;7.10;;;3.20;;
64712;SDS011;51140;45.340;5.980;2022-09-01T10:53:52;5.63;;;3.20;;
64712;SDS011;51140;45.340;5.980;2022-09-01T11:04:04;7.93;;;3.67;;
64712;SDS011;51140;45.340;5.980;2022-09-01T11:09:00;6.85;;;3.28;;
64712;SDS011;51140;45.340;5.980;2022-09-01T11:11:41;7.35;;;3.50;;
64712;SDS011;51140;45.340;5.980;2022-09-01T11:14:18;6.95;;;3.38;;
64712;SDS011;51140;45.340;5.980;2022-09-01T11:16:43;5.80;;;3.40;;
64712;SDS011;51140;45.340;5.980;2022-09-01T11:27:07;6.18;;;3.17;;
64712;SDS011;51140;45.340;5.980;2022-09-01T11:29:52;7.07;;;3.40;;
64712;SDS011;51140;45.340;5.980;2022-09-01T11:32:18;5.47;;;3.55;;
64712;SDS011;51140;45.340;5.980;2022-09-01T11:34:45;6.00;;;3.47;;
64712;SDS011;51140;45.340;5.980;2022-09-01T11:37:13;5.60;;;3.08;;
64712;SDS011;51140;45.340;5.980;2022-09-01T11:39:41;6.47;;;3.58;;
64712;SDS011;51140;45.340;5.980;2022-09-01T11:47:10;5.80;;;3.17;;
64712;SDS011;51140;45.340;5.980;2022-09-01T11:49:38;5.47;;;3.15;;
64712;SDS011;51140;45.340;5.980;2022-09-01T11:52:04;4.85;;;2.70;;
64712;SDS011;51140;45.340;5.980;2022-09-01T11:54:36;5.68;;;3.08;;
64712;SDS011;51140;45.340;5.980;2022-09-01T11:57:18;7.63;;;2.90;;
64712;SDS011;51140;45.340;5.980;2022-09-01T11:59:45;4.97;;;2.70;;
64712;SDS011;51140;45.340;5.980;2022-09-01T12:02:16;5.93;;;2.60;;
64712;SDS011;51140;45.340;5.980;2022-09-01T12:04:41;6.57;;;2.80;;
64712;SDS011;51140;45.340;5.980;2022-09-01T12:07:08;5.67;;;2.67;;
64712;SDS011;51140;45.340;5.980;2022-09-01T12:09:40;9.05;;;3.05;;
64712;SDS011;51140;45.340;5.980;2022-09-01T12:12:07;6.05;;;3.70;;
64712;SDS011;51140;45.340;5.980;2022-09-01T12:14:32;6.20;;;2.90;;
64712;SDS011;51140;45.340;5.980;2022-09-01T12:17:02;6.50;;;2.90;;
64712;SDS011;51140;45.340;5.980;2022-09-01T12:19:33;4.90;;;2.40;;
64712;SDS011;51140;45.340;5.980;2022-09-01T12:22:00;5.25;;;2.63;;
64712;SDS011;51140;45.340;5.980;2022-09-01T12:24:25;3.78;;;2.05;;
64712;SDS011;51140;45.340;5.980;2022-09-01T12:26:52;5.32;;;1.95;;
64712;SDS011;51140;45.340;5.980;2022-09-01T12:29:25;5.67;;;2.27;;
64712;SDS011;51140;45.340;5.980;2022-09-01T12:31:50;3.95;;;1.92;;
64712;SDS011;51140;45.340;5.980;2022-09-01T12:39:35;5.20;;;2.20;;
64712;SDS011;51140;45.340;5.980;2022-09-01T12:42:03;4.13;;;2.10;;
64712;SDS011;51140;45.340;5.980;2022-09-01T12:44:34;5.35;;;2.53;;
64712;SDS011;51140;45.340;5.980;2022-09-01T12:47:08;5.85;;;2.60;;
64712;SDS011;51140;45.340;5.980;2022-09-01T12:49:38;5.38;;;2.50;;
64712;SDS011;51140;45.340;5.980;2022-09-01T12:52:05;4.30;;;2.30;;
64712;SDS011;51140;45.340;5.980;2022-09-01T12:54:30;5.43;;;2.63;;
64712;SDS011;51140;45.340;5.980;2022-09-01T12:56:56;6.77;;;2.07;;
64712;SDS011;51140;45.340;5.980;2022-09-01T12:59:22;4.10;;;2.10;;
64712;SDS011;51140;45.340;5.980;2022-09-01T13:01:48;5.53;;;2.00;;
64712;SDS011;51140;45.340;5.980;2022-09-01T13:06:45;3.47;;;1.80;;
64712;SDS011;51140;45.340;5.980;2022-09-01T13:09:10;3.77;;;1.77;;
64712;SDS011;51140;45.340;5.980;2022-09-01T13:11:36;3.65;;;1.83;;
64712;SDS011;51140;45.340;5.980;2022-09-01T13:14:01;4.30;;;1.85;;
64712;SDS011;51140;45.340;5.980;2022-09-01T13:16:26;4.60;;;1.60;;
64712;SDS011;51140;45.340;5.980;2022-09-01T13:18:52;4.00;;;2.00;;
64712;SDS011;51140;45.340;5.980;2022-09-01T13:21:17;5.67;;;2.10;;
64712;SDS011;51140;45.340;5.980;2022-09-01T13:23:42;4.17;;;1.93;;
64712;SDS011;51140;45.340;5.980;2022-09-01T13:26:08;4.80;;;1.80;;
64712;SDS011;51140;45.340;5.980;2022-09-01T13:28:35;6.80;;;2.10;;
64712;SDS011;51140;45.340;5.980;2022-09-01T13:31:01;8.38;;;2.38;;
64712;SDS011;51140;45.340;5.980;2022-09-01T13:33:31;5.95;;;2.00;;
64712;SDS011;51140;45.340;5.980;2022-09-01T13:35:57;4.88;;;2.10;;
64712;SDS011;51140;45.340;5.980;2022-09-01T13:38:22;4.13;;;2.00;;
64712;SDS011;51140;45.340;5.980;2022-09-01T13:40:48;4.95;;;2.08;;
64712;SDS011;51140;45.340;5.980;2022-09-01T13:43:14;5.47;;;2.05;;
64712;SDS011;51140;45.340;5.980;2022-09-01T13:45:40;5.07;;;2.10;;
64712;SDS011;51140;45.340;5.980;2022-09-01T13:48:06;4.80;;;1.83;;
64712;SDS011;51140;45.340;5.980;2022-09-01T13:50:31;3.90;;;1.90;;
64712;SDS011;51140;45.340;5.980;2022-09-01T13:52:56;4.35;;;2.13;;
64712;SDS011;51140;45.340;5.980;2022-09-01T13:55:26;4.28;;;2.30;;
64712;SDS011;51140;45.340;5.980;2022-09-01T13:57:52;4.28;;;2.20;;
64712;SDS011;51140;45.340;5.980;2022-09-01T14:00:19;4.28;;;2.22;;
64712;SDS011;51140;45.340;5.980;2022-09-01T14:02:48;6.30;;;2.38;;
64712;SDS011;51140;45.340;5.980;2022-09-01T14:05:21;5.13;;;2.35;;
64712;SDS011;51140;45.340;5.980;2022-09-01T14:07:47;4.72;;;2.25;;
64712;SDS011;51140;45.340;5.980;2022-09-01T14:10:13;5.95;;;2.30;;
64712;SDS011;51140;45.340;5.980;2022-09-01T14:12:38;4.13;;;2.10;;
64712;SDS011;51140;45.340;5.980;2022-09-01T14:15:05;4.57;;;2.22;;
64712;SDS011;51140;45.340;5.980;2022-09-01T14:17:33;3.80;;;1.88;;
64712;SDS011;51140;45.340;5.980;2022-09-01T14:19:58;5.50;;;2.50;;
64712;SDS011;51140;45.340;5.980;2022-09-01T14:22:23;6.17;;;2.30;;
64712;SDS011;51140;45.340;5.980;2022-09-01T14:24:48;4.37;;;2.17;;
64712;SDS011;51140;45.340;5.980;2022-09-01T14:27:13;4.33;;;2.23;;
64712;SDS011;51140;45.340;5.980;2022-09-01T14:29:39;4.27;;;2.00;;
64712;SDS011;51140;45.340;5.980;2022-09-01T14:32:04;4.20;;;2.03;;
64712;SDS011;51140;45.340;5.980;2022-09-01T14:34:31;5.88;;;1.92;;
64712;SDS011;51140;45.340;5.980;2022-09-01T14:36:57;4.45;;;2.00;;
64712;SDS011;51140;45.340;5.980;2022-09-01T14:39:23;5.57;;;2.33;;
64712;SDS011;51140;45.340;5.980;2022-09-01T14:41:48;6.18;;;2.30;;
64712;SDS011;51140;45.340;5.980;2022-09-01T14:44:13;5.03;;;2.20;;
64712;SDS011;51140;45.340;5.980;2022-09-01T14:46:38;4.60;;;2.17;;
64712;SDS011;51140;45.340;5.980;2022-09-01T14:49:04;4.37;;;1.97;;
64712;SDS011;51140;45.340;5.980;2022-09-01T14:51:30;4.22;;;2.20;;
64712;SDS011;51140;45.340;5.980;2022-09-01T14:53:56;4.97;;;2.20;;
64712;SDS011;51140;45.340;5.980;2022-09-01T14:56:21;5.27;;;2.27;;
64712;SDS011;51140;45.340;5.980;2022-09-01T14:58:47;4.97;;;2.03;;
64712;SDS011;51140;45.340;5.980;2022-09-01T15:01:14;6.40;;;2.30;;
64712;SDS011;51140;45.340;5.980;2022-09-01T15:03:40;4.40;;;1.98;;
64712;SDS011;51140;45.340;5.980;2022-09-01T15:06:06;4.22;;;2.17;;
64712;SDS011;51140;45.340;5.980;2022-09-01T15:08:31;5.07;;;2.13;;
64712;SDS011;51140;45.340;5.980;2022-09-01T15:10:56;4.32;;;1.92;;
64712;SDS011;51140;45.340;5.980;2022-09-01T15:13:21;7.07;;;2.10;;
64712;SDS011;51140;45.340;5.980;2022-09-01T15:15:47;8.47;;;2.10;;
64712;SDS011;51140;45.340;5.980;2022-09-01T15:18:12;5.07;;;2.33;;
64712;SDS011;51140;45.340;5.980;2022-09-01T15:20:38;4.13;;;2.20;;
64712;SDS011;51140;45.340;5.980;2022-09-01T15:23:10;4.43;;;2.22;;
64712;SDS011;51140;45.340;5.980;2022-09-01T15:25:35;4.25;;;1.92;;
64712;SDS011;51140;45.340;5.980;2022-09-01T15:28:01;7.05;;;2.20;;
64712;SDS011;51140;45.340;5.980;2022-09-01T15:30:26;7.75;;;2.45;;
64712;SDS011;51140;45.340;5.980;2022-09-01T15:32:52;4.03;;;2.20;;
64712;SDS011;51140;45.340;5.980;2022-09-01T15:35:18;4.43;;;2.40;;
64712;SDS011;51140;45.340;5.980;2022-09-01T15:37:47;4.95;;;2.20;;
64712;SDS011;51140;45.340;5.980;2022-09-01T15:40:13;5.07;;;2.15;;
64712;SDS011;51140;45.340;5.980;2022-09-01T15:42:38;5.53;;;2.10;;
64712;SDS011;51140;45.340;5.980;2022-09-01T15:45:05;4.90;;;2.20;;
64712;SDS011;51140;45.340;5.980;2022-09-01T15:47:31;5.80;;;2.28;;
64712;SDS011;51140;45.340;5.980;2022-09-01T15:49:56;6.80;;;2.30;;
64712;SDS011;51140;45.340;5.980;2022-09-01T15:52:21;7.30;;;2.40;;
64712;SDS011;51140;45.340;5.980;2022-09-01T15:54:47;6.40;;;2.10;;
64712;SDS011;51140;45.340;5.980;2022-09-01T15:57:12;4.63;;;2.07;;
64712;SDS011;51140;45.340;5.980;2022-09-01T15:59:37;5.30;;;2.20;;